KAGC

Allegheny County Airport

Pittsburgh, Pennsylvania, USA
METAR KAGC 152153Z 25008KT 10SM SCT044 SCT055 28/19 A3005 RMK AO2 SLP173 T02780189
Observed Flight Rules
Aug-15 @ 21:53 UTC (34 minutes ago) Visual Flight Rules
Wind Visibility Clouds
250° at 8 knots 10 miles
  • Scattered at 4,400' AGL
  • Scattered at 5,500' AGL
Temperatures Readings
Current 28°C / 82°F
Dewpoint 19°C / 66°F
Humidity 58%
Altimeter 30.05" Hg
Pressure 1017.3 hPa
Elevation 389
METAR KAGC 152153Z 25008KT 10SM SCT044 SCT055 28/19 A3005 RMK AO2 SLP173 T02780189
Observed Flight Rules
Aug-15 @ 21:53 UTC
(34 minutes ago)
VFR
Wind Visibility
250° at 8 knots 10 miles
Clouds
  • Scattered at 4,400' AGL
  • Scattered at 5,500' AGL
Temperature Dewpoint
28°C / 82°F 19°C / 66°F
Humidity Altimeter Pressure
58% 30.05" Hg 1017.3 hPa